createdAt,value
2019-05-19T00:01:36.170Z,98952.88
2019-05-19T00:05:40.517Z,98953.18
2019-05-19T00:09:44.768Z,98951.66
2019-05-19T00:13:49.025Z,98945.22
2019-05-19T00:17:53.278Z,98948.71
2019-05-19T00:21:57.479Z,98946.24
2019-05-19T00:26:01.721Z,98943.20
2019-05-19T00:30:06.647Z,98943.67
2019-05-19T00:34:10.894Z,98937.98
2019-05-19T00:38:15.325Z,98935.16
2019-05-19T00:42:19.567Z,98931.91
2019-05-19T00:46:24.357Z,98931.15
2019-05-19T00:50:28.927Z,98929.00
2019-05-19T00:54:33.186Z,98931.15
2019-05-19T00:58:38.667Z,98918.37
2019-05-19T01:02:42.906Z,98925.03
2019-05-19T01:06:47.363Z,98917.16
2019-05-19T01:10:51.712Z,98914.62
2019-05-19T01:14:55.979Z,98916.15
2019-05-19T01:19:00.283Z,98908.02
2019-05-19T01:23:04.540Z,98909.98
2019-05-19T01:27:08.805Z,98914.02
2019-05-19T01:31:13.015Z,98919.50
2019-05-19T01:35:17.277Z,98915.62
2019-05-19T01:39:21.577Z,98910.87
2019-05-19T01:43:25.810Z,98915.36
2019-05-19T01:47:30.014Z,98908.35
2019-05-19T01:51:34.259Z,98904.45
2019-05-19T01:55:38.617Z,98909.87
2019-05-19T01:59:42.835Z,98899.45
2019-05-19T02:03:47.068Z,98897.36
2019-05-19T02:07:51.864Z,98902.22
2019-05-19T02:11:56.130Z,98904.25
2019-05-19T02:16:00.631Z,98904.25
2019-05-19T02:20:05.122Z,98914.66
2019-05-19T02:24:09.361Z,98917.93
2019-05-19T02:28:13.647Z,98916.03
2019-05-19T02:32:17.889Z,98910.54
2019-05-19T02:36:22.244Z,98911.48
2019-05-19T02:40:26.476Z,98916.36
2019-05-19T02:44:30.985Z,98912.86
2019-05-19T02:48:35.863Z,98913.64
2019-05-19T02:52:41.395Z,98913.64
2019-05-19T02:56:47.311Z,98914.91
2019-05-19T03:00:51.541Z,98916.57
2019-05-19T03:04:55.817Z,98915.39
2019-05-19T03:09:00.109Z,98915.39
2019-05-19T03:13:04.435Z,98915.02
2019-05-19T03:17:08.687Z,98915.16
2019-05-19T03:21:12.960Z,98914.23
2019-05-19T03:25:17.208Z,98904.45
2019-05-19T03:29:25.861Z,98895.16
2019-05-19T03:33:31.892Z,98902.53
2019-05-19T03:37:36.134Z,98903.74
2019-05-19T03:41:40.412Z,98885.80
2019-05-19T03:45:45.069Z,98885.80
2019-05-19T03:49:49.311Z,98895.53
2019-05-19T03:53:53.528Z,98899.97
2019-05-19T03:57:58.271Z,98905.20
2019-05-19T04:02:02.536Z,98898.57
2019-05-19T04:06:06.817Z,98912.04
2019-05-19T04:10:11.383Z,98907.56
2019-05-19T04:14:15.648Z,98910.49
2019-05-19T04:18:20.241Z,98907.30
2019-05-19T04:22:24.496Z,98909.11
2019-05-19T04:26:28.772Z,98909.11
2019-05-19T04:30:33.013Z,98914.31
2019-05-19T04:34:37.203Z,98912.91
2019-05-19T04:38:41.512Z,98912.02
2019-05-19T04:42:45.848Z,98909.28
2019-05-19T04:46:50.257Z,98898.16
2019-05-19T04:50:54.482Z,98888.81
2019-05-19T04:54:58.721Z,98894.84
2019-05-19T04:59:03.376Z,98905.33
2019-05-19T05:03:07.643Z,98906.06
2019-05-19T05:07:11.974Z,98909.44
2019-05-19T05:11:16.215Z,98909.67
2019-05-19T05:15:20.527Z,98908.63
2019-05-19T05:19:24.802Z,98904.25
2019-05-19T05:23:29.230Z,98896.84
2019-05-19T05:27:33.505Z,98901.22
2019-05-19T05:31:37.713Z,98903.30
2019-05-19T05:35:41.963Z,98890.38
2019-05-19T05:39:46.235Z,98890.34
2019-05-19T05:43:50.507Z,98894.50
2019-05-19T05:47:54.790Z,98894.27
2019-05-19T05:51:59.407Z,98898.95
2019-05-19T05:56:03.691Z,98895.70
2019-05-19T06:00:10.078Z,98902.56
2019-05-19T06:04:14.301Z,98907.79
2019-05-19T06:08:18.607Z,98913.44
2019-05-19T06:12:22.827Z,98915.09
2019-05-19T06:16:27.025Z,98913.58
2019-05-19T06:20:31.279Z,98911.92
2019-05-19T06:24:35.525Z,98908.12
2019-05-19T06:28:39.770Z,98903.34
2019-05-19T06:32:47.792Z,98908.29
2019-05-19T06:36:55.004Z,98908.09
2019-05-19T06:40:58.585Z,98912.10
2019-05-19T06:45:02.845Z,98918.16
2019-05-19T06:49:07.175Z,98912.56
2019-05-19T06:53:14.348Z,98905.27
2019-05-19T06:57:17.409Z,98898.77
2019-05-19T07:01:21.645Z,98897.23
2019-05-19T07:05:25.973Z,98904.91
2019-05-19T07:09:30.351Z,98894.43
2019-05-19T07:13:34.612Z,98889.09
2019-05-19T07:17:39.197Z,98891.29
2019-05-19T07:21:43.472Z,98891.59
2019-05-19T07:25:47.745Z,98893.57
2019-05-19T07:29:52.030Z,98887.95
2019-05-19T07:33:56.236Z,98894.42
2019-05-19T07:38:00.480Z,98889.06
2019-05-19T07:42:04.756Z,98888.13
2019-05-19T07:46:09.053Z,98886.03
2019-05-19T07:50:13.294Z,98884.25
2019-05-19T07:54:17.639Z,98881.34
2019-05-19T07:58:21.856Z,98870.67
2019-05-19T08:02:26.178Z,98874.82
2019-05-19T08:06:30.898Z,98878.25
2019-05-19T08:10:35.144Z,98864.03
2019-05-19T08:14:39.408Z,98857.98
2019-05-19T08:18:43.718Z,98851.30
2019-05-19T08:22:50.776Z,98841.32
2019-05-19T08:26:53.894Z,98843.02
2019-05-19T08:30:58.438Z,98842.87
2019-05-19T08:35:04.459Z,98840.49
2019-05-19T08:39:08.787Z,98835.78
2019-05-19T08:43:13.121Z,98841.94
2019-05-19T08:47:17.442Z,98833.90
2019-05-19T08:51:21.685Z,98834.08
2019-05-19T08:55:26.289Z,98831.58
2019-05-19T08:59:30.531Z,98834.56
2019-05-19T09:03:34.781Z,98838.28
2019-05-19T09:07:39.059Z,98838.55
2019-05-19T09:11:43.264Z,98829.36
2019-05-19T09:15:47.583Z,98837.13
2019-05-19T09:19:51.790Z,98836.03
2019-05-19T09:23:56.117Z,98826.40
2019-05-19T09:28:00.391Z,98825.11
2019-05-19T09:32:04.604Z,98829.80
2019-05-19T09:36:08.859Z,98822.42
2019-05-19T09:40:13.421Z,98823.68
2019-05-19T09:44:18.697Z,98829.51
2019-05-19T09:48:22.941Z,98838.22
2019-05-19T09:52:27.562Z,98834.40
2019-05-19T09:56:31.946Z,98834.58
2019-05-19T10:00:36.348Z,98842.76
2019-05-19T10:04:40.622Z,98838.70
2019-05-19T10:08:58.252Z,98831.38
2019-05-19T10:13:02.509Z,98826.70
2019-05-19T10:17:06.772Z,98819.69
2019-05-19T10:21:11.019Z,98812.22
2019-05-19T10:25:22.659Z,98806.95
2019-05-19T10:29:23.263Z,98799.66
2019-05-19T10:33:27.515Z,98795.70
2019-05-19T10:37:31.771Z,98786.22
2019-05-19T10:41:36.068Z,98791.26
2019-05-19T10:45:40.370Z,98792.34
2019-05-19T10:49:44.624Z,98788.27
2019-05-19T10:53:49.448Z,98788.97
2019-05-19T10:57:54.151Z,98788.80
2019-05-19T11:01:58.753Z,98786.03
2019-05-19T11:06:03.481Z,98782.95
2019-05-19T11:10:08.642Z,98782.93
2019-05-19T11:14:15.952Z,98770.85
2019-05-19T11:18:19.965Z,98775.05
2019-05-19T11:22:24.225Z,98782.03
2019-05-19T11:26:28.485Z,98777.52
2019-05-19T11:30:32.716Z,98782.97
2019-05-19T11:34:36.963Z,98783.63
2019-05-19T11:38:41.197Z,98781.88
2019-05-19T11:42:46.946Z,98786.33
2019-05-19T11:46:51.357Z,98785.22
2019-05-19T11:50:55.612Z,98792.37
2019-05-19T11:54:59.864Z,98790.57
2019-05-19T11:59:04.574Z,98786.75
2019-05-19T12:03:08.837Z,98784.09
2019-05-19T12:07:13.418Z,98785.17
2019-05-19T12:11:17.679Z,98774.84
2019-05-19T12:15:22.106Z,98769.72
2019-05-19T12:19:26.399Z,98769.39
2019-05-19T12:23:30.592Z,98757.62
2019-05-19T12:27:34.879Z,98757.84
2019-05-19T12:31:39.074Z,98755.73
2019-05-19T12:35:43.373Z,98743.27
2019-05-19T12:39:47.607Z,98736.75
2019-05-19T12:43:51.866Z,98733.29
2019-05-19T12:47:56.102Z,98734.81
2019-05-19T12:52:00.459Z,98730.02
2019-05-19T12:56:04.779Z,98727.75
2019-05-19T13:00:09.600Z,98727.91
2019-05-19T13:04:14.494Z,98721.32
2019-05-19T13:08:18.749Z,98712.02
2019-05-19T13:12:23.012Z,98707.90
2019-05-19T13:16:27.339Z,98703.38
2019-05-19T13:20:31.596Z,98704.84
2019-05-19T13:24:35.849Z,98705.70
2019-05-19T13:28:40.099Z,98701.56
2019-05-19T13:32:44.336Z,98707.80
2019-05-19T13:36:48.565Z,98699.19
2019-05-19T13:40:52.803Z,98693.25
2019-05-19T13:44:57.076Z,98686.55
2019-05-19T13:49:02.119Z,98696.99
2019-05-19T13:53:06.353Z,98690.85
2019-05-19T13:57:12.632Z,98690.17
2019-05-19T14:01:28.280Z,98693.62
2019-05-19T14:05:22.566Z,98688.45
2019-05-19T14:09:26.884Z,98687.75
2019-05-19T14:13:31.430Z,98680.19
2019-05-19T14:17:35.690Z,98679.45
2019-05-19T14:21:39.927Z,98678.77
2019-05-19T14:25:44.382Z,98669.19
2019-05-19T14:29:48.616Z,98667.48
2019-05-19T14:33:52.866Z,98661.64
2019-05-19T14:37:57.299Z,98659.72
2019-05-19T14:42:05.081Z,98665.16
2019-05-19T14:46:09.453Z,98666.19
2019-05-19T14:50:13.936Z,98662.39
2019-05-19T14:54:18.215Z,98660.08
2019-05-19T14:58:22.455Z,98658.14
2019-05-19T15:02:26.735Z,98658.53
2019-05-19T15:06:31.148Z,98657.98
2019-05-19T15:10:35.398Z,98656.33
2019-05-19T15:14:40.021Z,98654.23
2019-05-19T15:18:44.627Z,98652.63
2019-05-19T15:22:48.920Z,98648.62
2019-05-19T15:26:53.126Z,98640.77
2019-05-19T15:30:57.407Z,98645.56
2019-05-19T15:35:01.791Z,98653.91
2019-05-19T15:39:07.532Z,98650.39
2019-05-19T15:43:11.848Z,98650.02
2019-05-19T15:47:16.151Z,98649.53
2019-05-19T15:51:28.430Z,98654.50
2019-05-19T15:55:26.411Z,98646.77
2019-05-19T15:59:30.644Z,98655.15
2019-05-19T16:03:34.926Z,98647.29
2019-05-19T16:07:39.197Z,98648.81
2019-05-19T16:11:43.524Z,98640.23
2019-05-19T16:15:48.008Z,98642.02
2019-05-19T16:19:52.235Z,98652.64
2019-05-19T16:23:56.455Z,98654.47
2019-05-19T16:28:00.724Z,98657.03
2019-05-19T16:32:04.981Z,98653.59
2019-05-19T16:36:09.322Z,98655.11
2019-05-19T16:40:13.793Z,98651.75
2019-05-19T16:44:18.105Z,98646.88
2019-05-19T16:48:23.483Z,98647.28
2019-05-19T16:52:27.840Z,98638.48
2019-05-19T16:56:32.464Z,98640.37
2019-05-19T17:00:36.744Z,98637.90
2019-05-19T17:04:41.037Z,98645.94
2019-05-19T17:08:45.353Z,98651.47
2019-05-19T17:12:49.651Z,98643.79
2019-05-19T17:16:53.910Z,98655.66
2019-05-19T17:20:58.272Z,98645.30
2019-05-19T17:25:02.483Z,98640.90
2019-05-19T17:29:06.753Z,98626.12
2019-05-19T17:33:10.988Z,98628.18
2019-05-19T17:37:15.253Z,98633.73
2019-05-19T17:41:19.521Z,98631.05
2019-05-19T17:45:24.059Z,98637.48
2019-05-19T17:49:28.341Z,98618.73
2019-05-19T17:53:32.634Z,98624.05
2019-05-19T17:57:38.554Z,98619.92
2019-05-19T18:01:43.039Z,98615.20
2019-05-19T18:05:47.384Z,98610.22
2019-05-19T18:09:51.785Z,98604.84
2019-05-19T18:13:56.205Z,98602.33
2019-05-19T18:18:00.578Z,98601.13
2019-05-19T18:22:05.542Z,98600.53
2019-05-19T18:26:09.879Z,98598.22
2019-05-19T18:30:15.219Z,98596.24
2019-05-19T18:34:19.445Z,98603.81
2019-05-19T18:38:23.749Z,98601.95
2019-05-19T18:42:28.019Z,98597.77
2019-05-19T18:46:32.321Z,98594.73
2019-05-19T18:50:36.874Z,98592.80
2019-05-19T18:54:41.364Z,98594.95
2019-05-19T18:58:46.014Z,98590.20
2019-05-19T19:02:50.290Z,98587.51
2019-05-19T19:06:55.155Z,98583.18
2019-05-19T19:10:59.489Z,98592.00
2019-05-19T19:15:03.730Z,98587.05
2019-05-19T19:19:08.339Z,98586.58
2019-05-19T19:23:12.740Z,98582.91
2019-05-19T19:27:17.043Z,98579.98
2019-05-19T19:31:21.289Z,98574.90
2019-05-19T19:35:25.605Z,98573.78
2019-05-19T19:39:29.898Z,98564.85
2019-05-19T19:43:34.158Z,98564.36
2019-05-19T19:47:38.520Z,98576.27
2019-05-19T19:51:42.864Z,98569.75
2019-05-19T19:55:47.264Z,98583.33
2019-05-19T19:59:51.614Z,98575.52
2019-05-19T20:03:55.889Z,98573.68
2019-05-19T20:08:00.296Z,98578.51
2019-05-19T20:12:04.556Z,98574.28
2019-05-19T20:16:08.880Z,98579.09
2019-05-19T20:20:13.170Z,98575.41
2019-05-19T20:24:17.455Z,98569.16
2019-05-19T20:28:21.730Z,98564.93
2019-05-19T20:32:25.983Z,98575.23
2019-05-19T20:36:30.251Z,98594.80
2019-05-19T20:40:34.523Z,98591.06
2019-05-19T20:44:38.795Z,98586.48
2019-05-19T20:48:43.178Z,98594.41
2019-05-19T20:52:47.765Z,98595.42
2019-05-19T20:56:52.064Z,98596.54
2019-05-19T21:00:56.279Z,98591.92
2019-05-19T21:05:00.565Z,98594.40
2019-05-19T21:09:06.368Z,98598.87
2019-05-19T21:13:10.578Z,98601.05
2019-05-19T21:17:14.853Z,98598.80
2019-05-19T21:21:19.484Z,98586.70
2019-05-19T21:25:23.826Z,98577.80
2019-05-19T21:29:28.093Z,98559.20
2019-05-19T21:33:32.369Z,98576.97
2019-05-19T21:37:36.732Z,98579.92
2019-05-19T21:41:40.979Z,98596.94
2019-05-19T21:45:45.188Z,98589.06
2019-05-19T21:49:49.483Z,98589.24
2019-05-19T21:53:54.324Z,98578.06
2019-05-19T21:57:58.594Z,98581.67
2019-05-19T22:02:03.256Z,98577.69
2019-05-19T22:06:07.506Z,98584.45
2019-05-19T22:10:11.907Z,98592.91
2019-05-19T22:14:16.150Z,98588.56
2019-05-19T22:18:20.409Z,98598.53
2019-05-19T22:22:24.997Z,98598.80
2019-05-19T22:26:29.266Z,98600.91
2019-05-19T22:30:33.488Z,98598.22
2019-05-19T22:34:37.759Z,98595.41
2019-05-19T22:38:41.963Z,98586.38
2019-05-19T22:42:46.226Z,98590.25
2019-05-19T22:46:50.436Z,98591.58
2019-05-19T22:50:54.709Z,98587.97
2019-05-19T22:54:59.065Z,98580.95
2019-05-19T22:59:03.351Z,98582.13
2019-05-19T23:03:07.586Z,98586.73
2019-05-19T23:07:11.882Z,98578.34
2019-05-19T23:11:16.109Z,98581.66
2019-05-19T23:15:21.358Z,98576.19
2019-05-19T23:19:25.800Z,98576.52
2019-05-19T23:23:30.179Z,98576.69
2019-05-19T23:27:34.399Z,98573.76
2019-05-19T23:31:38.680Z,98571.27
2019-05-19T23:35:43.175Z,98576.53
2019-05-19T23:39:47.401Z,98575.58
2019-05-19T23:43:51.946Z,98570.36
2019-05-19T23:47:56.213Z,98581.95
2019-05-19T23:52:00.623Z,98566.55
2019-05-19T23:56:05.391Z,98555.13
